Time;durP1;ratioP1;P1;durP2;ratioP2;P2;SDS_P1;SDS_P2;PMS_P1;PMS_P2;Temp;Humidity;BMP_temperature;BMP_pressure;BME280_temperature;BME280_humidity;BME280_pressure;Samples;Min_cycle;Max_cycle;Signal;HPM_P1;HPM_P2
2022/07/15 00:02:14;;;;;;;12.45;3.50;;;;;;;;;;5071475;28;20547;-64
2022/07/15 00:04:40;;;;;;;11.02;3.42;;;;;;;;;;5069945;28;20036;-64
2022/07/15 00:07:06;;;;;;;9.43;3.65;;;;;;;;;;5070538;28;20059;-65
2022/07/15 00:12:18;;;;;;;12.52;3.13;;;;;;;;;;5071605;28;20029;-64
2022/07/15 00:14:44;;;;;;;6.53;3.92;;;;;;;;;;5081201;28;20470;-64
2022/07/15 00:17:10;;;;;;;6.70;3.45;;;;;;;;;;5073288;28;20068;-65
2022/07/15 00:19:37;;;;;;;10.07;3.03;;;;;;;;;;5083360;28;20078;-64
2022/07/15 00:22:03;;;;;;;6.40;3.10;;;;;;;;;;5077807;28;20028;-64
2022/07/15 00:24:30;;;;;;;11.18;3.15;;;;;;;;;;5078116;28;20035;-65
2022/07/15 00:26:56;;;;;;;12.27;3.30;;;;;;;;;;5071291;28;20099;-64
2022/07/15 00:29:23;;;;;;;8.52;3.58;;;;;;;;;;5071423;28;20028;-65
2022/07/15 00:31:49;;;;;;;8.45;2.95;;;;;;;;;;5084375;28;20055;-64
2022/07/15 00:34:16;;;;;;;10.00;3.63;;;;;;;;;;5071866;28;20103;-64
2022/07/15 00:36:43;;;;;;;8.43;3.78;;;;;;;;;;5071622;28;20044;-64
2022/07/15 00:39:09;;;;;;;9.32;2.92;;;;;;;;;;5073411;28;20031;-64
2022/07/15 00:41:38;;;;;;;8.25;3.08;;;;;;;;;;5074104;28;20039;-64
2022/07/15 00:44:05;;;;;;;9.77;4.05;;;;;;;;;;5060358;28;20122;-64
2022/07/15 00:46:31;;;;;;;7.32;2.92;;;;;;;;;;5075006;28;20036;-64
2022/07/15 00:49:00;;;;;;;8.05;3.70;;;;;;;;;;5087620;28;20017;-64
2022/07/15 00:51:27;;;;;;;12.73;2.95;;;;;;;;;;5073893;28;20394;-64
2022/07/15 00:53:54;;;;;;;13.93;3.05;;;;;;;;;;5073643;28;20543;-65
2022/07/15 00:56:22;;;;;;;8.13;2.65;;;;;;;;;;5074760;28;20024;-64
2022/07/15 00:58:49;;;;;;;9.38;3.38;;;;;;;;;;5074692;28;20031;-64
2022/07/15 01:01:19;;;;;;;8.95;3.08;;;;;;;;;;5074745;28;20028;-64
2022/07/15 01:03:47;;;;;;;8.52;3.03;;;;;;;;;;5073356;28;20041;-65
2022/07/15 01:06:14;;;;;;;6.85;2.67;;;;;;;;;;5074343;28;20040;-65
2022/07/15 01:08:40;;;;;;;9.98;3.38;;;;;;;;;;5073293;28;20059;-65
2022/07/15 01:11:06;;;;;;;8.32;3.30;;;;;;;;;;5074257;28;20489;-65
2022/07/15 01:13:33;;;;;;;9.65;3.58;;;;;;;;;;5072672;28;20067;-65
2022/07/15 01:15:59;;;;;;;7.28;2.90;;;;;;;;;;5074489;28;20370;-64
2022/07/15 01:18:26;;;;;;;7.20;3.30;;;;;;;;;;5073125;28;20029;-65
2022/07/15 01:20:52;;;;;;;8.88;3.25;;;;;;;;;;5072829;28;20032;-64
2022/07/15 01:23:18;;;;;;;7.43;3.05;;;;;;;;;;5085825;28;20048;-64
2022/07/15 01:26:01;;;;;;;6.72;2.95;;;;;;;;;;5072938;28;20062;-64
2022/07/15 01:28:27;;;;;;;9.45;3.88;;;;;;;;;;5072538;28;20148;-65
2022/07/15 01:30:55;;;;;;;8.00;3.17;;;;;;;;;;5072907;28;20055;-64
2022/07/15 01:33:22;;;;;;;8.70;3.15;;;;;;;;;;5072749;28;20020;-64
2022/07/15 01:35:48;;;;;;;7.72;2.92;;;;;;;;;;5073106;28;20021;-65
2022/07/15 01:38:14;;;;;;;7.15;3.03;;;;;;;;;;5072676;28;20051;-65
2022/07/15 01:40:41;;;;;;;6.72;3.00;;;;;;;;;;5072814;28;20082;-64
2022/07/15 01:43:08;;;;;;;8.95;3.72;;;;;;;;;;5072478;28;20032;-64
2022/07/15 01:45:34;;;;;;;6.22;2.97;;;;;;;;;;5072653;28;20074;-64
2022/07/15 01:48:00;;;;;;;7.38;2.90;;;;;;;;;;5072759;28;20452;-64
2022/07/15 01:50:59;;;;;;;5.10;2.90;;;;;;;;;;5049845;28;20486;-64
2022/07/15 01:53:26;;;;;;;12.15;3.28;;;;;;;;;;5072471;28;20029;-64
2022/07/15 01:55:53;;;;;;;7.00;3.58;;;;;;;;;;5072727;28;20457;-64
2022/07/15 01:58:20;;;;;;;6.82;3.28;;;;;;;;;;5072070;28;20028;-64
2022/07/15 02:00:46;;;;;;;8.68;2.78;;;;;;;;;;5072582;28;20437;-64
2022/07/15 02:03:13;;;;;;;6.53;2.83;;;;;;;;;;5073795;28;20179;-65
2022/07/15 02:05:39;;;;;;;8.25;2.78;;;;;;;;;;5073466;28;20048;-64
2022/07/15 02:08:06;;;;;;;10.35;2.92;;;;;;;;;;5055763;28;20066;-64
2022/07/15 02:10:40;;;;;;;8.63;3.10;;;;;;;;;;5071796;28;20413;-64
2022/07/15 02:13:13;;;;;;;9.63;2.80;;;;;;;;;;5072062;28;20032;-65
2022/07/15 02:15:39;;;;;;;8.82;2.78;;;;;;;;;;5073215;28;20050;-64
2022/07/15 02:18:06;;;;;;;9.65;3.10;;;;;;;;;;5072312;28;20016;-64
2022/07/15 02:20:33;;;;;;;7.18;2.75;;;;;;;;;;5071776;28;20037;-64
2022/07/15 02:23:01;;;;;;;8.63;2.75;;;;;;;;;;5068147;28;20031;-64
2022/07/15 02:25:28;;;;;;;10.57;2.63;;;;;;;;;;5071546;28;20118;-64
2022/07/15 02:27:58;;;;;;;14.38;4.38;;;;;;;;;;5071304;28;20525;-64
2022/07/15 02:30:26;;;;;;;13.63;2.95;;;;;;;;;;5073222;28;20043;-64
2022/07/15 02:32:52;;;;;;;9.90;2.58;;;;;;;;;;5071755;28;20029;-65
2022/07/15 02:35:19;;;;;;;8.70;2.55;;;;;;;;;;5073073;28;20062;-64
2022/07/15 02:37:45;;;;;;;17.05;3.38;;;;;;;;;;5071706;28;20035;-65
2022/07/15 02:40:12;;;;;;;13.30;2.92;;;;;;;;;;5071337;28;20043;-64
2022/07/15 02:42:39;;;;;;;15.40;2.88;;;;;;;;;;5071535;28;20032;-65
2022/07/15 02:45:06;;;;;;;11.63;2.92;;;;;;;;;;5071353;28;20112;-64
2022/07/15 02:47:32;;;;;;;8.93;2.85;;;;;;;;;;5071403;28;20032;-64
2022/07/15 02:49:59;;;;;;;13.10;3.40;;;;;;;;;;5071375;28;20067;-64
2022/07/15 02:52:27;;;;;;;10.82;2.63;;;;;;;;;;5071397;28;20028;-64
2022/07/15 02:54:53;;;;;;;10.05;2.47;;;;;;;;;;5070702;28;20490;-65
2022/07/15 02:57:20;;;;;;;12.50;3.00;;;;;;;;;;5057350;28;20032;-64
2022/07/15 02:59:46;;;;;;;7.50;2.10;;;;;;;;;;5070920;28;20111;-65
2022/07/15 03:02:13;;;;;;;11.13;2.35;;;;;;;;;;5070128;28;20058;-64
2022/07/15 03:04:39;;;;;;;9.15;2.70;;;;;;;;;;5071306;28;20115;-64
2022/07/15 03:07:06;;;;;;;9.98;3.25;;;;;;;;;;5071064;28;20067;-64
2022/07/15 03:09:33;;;;;;;8.80;2.50;;;;;;;;;;5070948;28;20426;-65
2022/07/15 03:11:59;;;;;;;6.50;2.42;;;;;;;;;;5071242;28;20094;-65
2022/07/15 03:14:25;;;;;;;6.10;2.60;;;;;;;;;;5071366;28;20039;-64
2022/07/15 03:16:51;;;;;;;7.80;2.65;;;;;;;;;;5072566;28;20048;-64
2022/07/15 03:19:19;;;;;;;10.40;2.63;;;;;;;;;;5070882;28;20025;-64
2022/07/15 03:21:48;;;;;;;7.85;2.33;;;;;;;;;;5076791;28;20024;-64
2022/07/15 03:24:14;;;;;;;10.55;2.63;;;;;;;;;;5077317;28;20039;-64
2022/07/15 03:26:42;;;;;;;10.25;2.55;;;;;;;;;;5070873;28;20043;-65
2022/07/15 03:29:09;;;;;;;9.85;2.67;;;;;;;;;;5070518;28;20074;-64
2022/07/15 03:31:38;;;;;;;7.65;2.80;;;;;;;;;;5070601;28;20029;-66
2022/07/15 03:34:04;;;;;;;7.35;2.30;;;;;;;;;;5070724;28;20082;-65
2022/07/15 03:36:31;;;;;;;6.93;2.60;;;;;;;;;;5070576;28;20025;-65
2022/07/15 03:38:57;;;;;;;10.50;2.55;;;;;;;;;;5071913;28;20478;-64
2022/07/15 03:41:23;;;;;;;15.55;3.42;;;;;;;;;;5072349;28;20028;-65
2022/07/15 03:43:49;;;;;;;9.38;2.65;;;;;;;;;;5070836;28;20032;-65
2022/07/15 03:46:17;;;;;;;7.25;2.28;;;;;;;;;;5070972;28;20074;-65
2022/07/15 03:48:49;;;;;;;9.07;2.70;;;;;;;;;;5070788;28;20111;-64
2022/07/15 03:51:15;;;;;;;15.23;3.13;;;;;;;;;;5072145;28;20021;-64
2022/07/15 03:53:42;;;;;;;9.13;2.60;;;;;;;;;;5070387;28;20024;-65
2022/07/15 03:56:09;;;;;;;6.80;2.67;;;;;;;;;;5070852;28;20078;-65
2022/07/15 03:58:35;;;;;;;9.05;2.80;;;;;;;;;;5070568;28;20044;-64
2022/07/15 04:01:01;;;;;;;6.45;2.30;;;;;;;;;;5070627;28;20099;-65
2022/07/15 04:03:27;;;;;;;8.13;2.50;;;;;;;;;;5070674;28;20542;-65
2022/07/15 04:05:53;;;;;;;7.35;2.53;;;;;;;;;;5070555;28;20024;-65
2022/07/15 04:08:20;;;;;;;8.30;2.55;;;;;;;;;;5071713;28;20028;-65
2022/07/15 04:10:46;;;;;;;6.75;3.10;;;;;;;;;;5070409;28;20016;-64
2022/07/15 04:13:12;;;;;;;6.15;2.35;;;;;;;;;;5072291;28;20032;-65
2022/07/15 04:15:38;;;;;;;8.45;2.28;;;;;;;;;;5074293;28;20036;-64
2022/07/15 04:18:04;;;;;;;7.22;2.20;;;;;;;;;;5074415;28;20577;-64
2022/07/15 04:20:30;;;;;;;10.10;2.70;;;;;;;;;;5075512;28;20036;-65
2022/07/15 04:22:59;;;;;;;8.50;2.38;;;;;;;;;;5086604;28;20032;-64
2022/07/15 04:25:26;;;;;;;13.82;3.42;;;;;;;;;;5074259;28;20048;-64
2022/07/15 04:27:53;;;;;;;6.43;2.38;;;;;;;;;;5073832;28;20518;-64
2022/07/15 04:30:24;;;;;;;9.63;2.60;;;;;;;;;;5074209;28;20028;-64
2022/07/15 04:32:51;;;;;;;8.15;2.85;;;;;;;;;;5073939;28;20070;-64
2022/07/15 04:35:18;;;;;;;9.18;2.72;;;;;;;;;;5074260;28;20020;-65
2022/07/15 04:37:49;;;;;;;7.00;2.75;;;;;;;;;;5073648;28;20151;-65
2022/07/15 04:40:16;;;;;;;6.95;2.55;;;;;;;;;;5073426;28;20032;-65
2022/07/15 04:42:43;;;;;;;5.63;2.55;;;;;;;;;;5073731;28;20035;-64
2022/07/15 04:45:12;;;;;;;7.53;3.03;;;;;;;;;;5073652;28;20066;-64
2022/07/15 04:47:39;;;;;;;9.82;3.20;;;;;;;;;;5073605;28;20043;-64
2022/07/15 04:52:54;;;;;;;9.40;2.50;;;;;;;;;;5073811;28;20029;-65
2022/07/15 04:55:22;;;;;;;10.45;3.17;;;;;;;;;;5073756;28;20024;-64
2022/07/15 04:57:56;;;;;;;4.72;2.33;;;;;;;;;;5073598;28;20071;-64
2022/07/15 05:00:22;;;;;;;5.60;2.50;;;;;;;;;;5074921;28;20060;-65
2022/07/15 05:02:48;;;;;;;5.03;2.35;;;;;;;;;;5073602;28;20359;-64
2022/07/15 05:05:16;;;;;;;6.20;3.08;;;;;;;;;;5073090;28;20063;-64
2022/07/15 05:07:42;;;;;;;8.13;2.33;;;;;;;;;;5073610;28;20059;-64
2022/07/15 05:10:10;;;;;;;7.10;2.50;;;;;;;;;;5073535;28;20375;-65
2022/07/15 05:12:39;;;;;;;6.32;2.40;;;;;;;;;;5059407;28;20029;-65
2022/07/15 05:15:06;;;;;;;8.48;3.10;;;;;;;;;;5073151;28;20120;-64
2022/07/15 05:17:33;;;;;;;8.82;2.58;;;;;;;;;;5073174;28;20039;-64
2022/07/15 05:19:59;;;;;;;7.50;2.63;;;;;;;;;;5072977;28;20036;-64
2022/07/15 05:22:25;;;;;;;10.40;2.40;;;;;;;;;;5084462;28;20032;-64
2022/07/15 05:24:52;;;;;;;9.63;2.35;;;;;;;;;;5073424;28;20032;-65
2022/07/15 05:27:18;;;;;;;8.95;2.72;;;;;;;;;;5072789;28;20048;-65
2022/07/15 05:29:48;;;;;;;5.85;2.20;;;;;;;;;;5072955;28;20028;-65
2022/07/15 05:32:15;;;;;;;4.28;2.08;;;;;;;;;;5073097;28;20449;-64
2022/07/15 05:34:43;;;;;;;9.40;2.63;;;;;;;;;;5072647;28;20031;-65
2022/07/15 05:37:13;;;;;;;4.88;2.00;;;;;;;;;;5072998;28;20444;-64
2022/07/15 05:39:53;;;;;;;8.93;3.45;;;;;;;;;;5074025;28;20490;-64
2022/07/15 05:42:24;;;;;;;5.82;2.53;;;;;;;;;;5062193;28;20035;-65
2022/07/15 05:44:51;;;;;;;5.38;2.10;;;;;;;;;;5072703;28;20028;-64
2022/07/15 05:47:17;;;;;;;10.55;2.83;;;;;;;;;;5072830;28;20025;-65
2022/07/15 05:49:47;;;;;;;13.50;2.28;;;;;;;;;;5072403;28;20029;-64
2022/07/15 05:52:13;;;;;;;6.78;1.95;;;;;;;;;;5072435;28;20035;-65
2022/07/15 05:54:40;;;;;;;9.73;2.33;;;;;;;;;;5072254;28;20043;-65
2022/07/15 05:57:08;;;;;;;12.48;3.17;;;;;;;;;;5072028;28;20040;-66
2022/07/15 05:59:35;;;;;;;8.13;2.55;;;;;;;;;;5072303;28;20037;-65
2022/07/15 06:02:01;;;;;;;12.55;2.35;;;;;;;;;;5072164;28;20025;-65
2022/07/15 06:04:27;;;;;;;6.88;2.78;;;;;;;;;;5071950;28;20390;-65
2022/07/15 06:06:54;;;;;;;9.82;2.80;;;;;;;;;;5071999;28;20032;-65
2022/07/15 06:09:21;;;;;;;7.30;2.55;;;;;;;;;;5072335;28;20032;-65
2022/07/15 06:11:48;;;;;;;8.55;2.70;;;;;;;;;;5073635;28;20024;-65
2022/07/15 06:14:15;;;;;;;8.93;2.88;;;;;;;;;;5072104;28;20021;-66
2022/07/15 06:16:42;;;;;;;7.22;2.60;;;;;;;;;;5072220;28;20040;-65
2022/07/15 06:19:11;;;;;;;11.40;2.83;;;;;;;;;;5071501;28;20021;-64
2022/07/15 06:21:37;;;;;;;10.55;2.40;;;;;;;;;;5077870;28;20024;-64
2022/07/15 06:24:04;;;;;;;15.45;2.25;;;;;;;;;;5080127;28;20032;-64
2022/07/15 06:26:31;;;;;;;13.18;2.97;;;;;;;;;;5071667;28;20040;-65
2022/07/15 06:28:58;;;;;;;12.45;2.65;;;;;;;;;;5071412;28;20040;-64
2022/07/15 06:31:25;;;;;;;6.63;2.58;;;;;;;;;;5071545;28;20037;-64
2022/07/15 06:33:51;;;;;;;9.45;2.13;;;;;;;;;;5072797;28;20029;-64
2022/07/15 06:36:17;;;;;;;12.65;2.15;;;;;;;;;;5072515;28;20497;-64
2022/07/15 06:38:45;;;;;;;13.10;2.35;;;;;;;;;;5055361;28;20067;-65
2022/07/15 06:41:11;;;;;;;9.05;2.33;;;;;;;;;;5071853;28;20401;-65
2022/07/15 06:43:39;;;;;;;15.65;2.40;;;;;;;;;;5071703;28;20085;-65
2022/07/15 06:46:24;;;;;;;11.55;2.78;;;;;;;;;;5071337;28;20482;-65
2022/07/15 06:48:50;;;;;;;10.25;2.60;;;;;;;;;;5072802;28;20048;-64
2022/07/15 06:51:16;;;;;;;13.10;2.53;;;;;;;;;;5071603;28;20039;-65
2022/07/15 06:53:42;;;;;;;15.95;2.92;;;;;;;;;;5071239;28;20063;-65
2022/07/15 06:56:09;;;;;;;20.33;2.80;;;;;;;;;;5071365;28;20343;-65
2022/07/15 06:58:35;;;;;;;17.25;2.70;;;;;;;;;;5072519;28;20032;-65
2022/07/15 07:01:01;;;;;;;16.30;2.22;;;;;;;;;;5071231;28;20020;-64
2022/07/15 07:03:28;;;;;;;12.15;2.58;;;;;;;;;;5071252;28;20410;-64
2022/07/15 07:05:54;;;;;;;13.10;2.47;;;;;;;;;;5071814;28;20070;-65
2022/07/15 07:08:20;;;;;;;8.13;2.92;;;;;;;;;;5072278;28;20067;-66
2022/07/15 07:10:46;;;;;;;15.20;2.95;;;;;;;;;;5070936;28;20394;-65
2022/07/15 07:13:12;;;;;;;9.63;2.40;;;;;;;;;;5070675;28;20658;-65
2022/07/15 07:15:39;;;;;;;15.05;3.08;;;;;;;;;;5071329;28;20107;-65
2022/07/15 07:18:05;;;;;;;16.65;3.13;;;;;;;;;;5070263;28;20402;-64
2022/07/15 07:20:31;;;;;;;11.73;3.22;;;;;;;;;;5072069;28;20462;-64
2022/07/15 07:22:57;;;;;;;9.63;2.45;;;;;;;;;;5085203;28;20036;-64
2022/07/15 07:25:23;;;;;;;16.15;3.22;;;;;;;;;;5071793;28;20024;-64
2022/07/15 07:27:50;;;;;;;11.85;2.80;;;;;;;;;;5072007;28;20044;-65
2022/07/15 07:30:16;;;;;;;15.60;2.40;;;;;;;;;;5072181;28;20021;-67
2022/07/15 07:32:42;;;;;;;13.63;3.10;;;;;;;;;;5071661;28;20058;-65
2022/07/15 07:35:08;;;;;;;15.50;3.22;;;;;;;;;;5070358;28;20074;-65
2022/07/15 07:37:35;;;;;;;10.98;2.33;;;;;;;;;;5071196;28;20033;-65
2022/07/15 07:40:01;;;;;;;13.93;2.95;;;;;;;;;;5071744;28;20020;-65
2022/07/15 07:42:27;;;;;;;10.75;2.55;;;;;;;;;;5071845;28;20031;-65
2022/07/15 07:44:53;;;;;;;13.43;2.83;;;;;;;;;;5071173;28;20029;-65
2022/07/15 07:47:21;;;;;;;11.43;3.20;;;;;;;;;;5071722;28;20033;-65
2022/07/15 07:49:48;;;;;;;11.52;3.35;;;;;;;;;;5074082;28;20036;-64
2022/07/15 07:52:15;;;;;;;12.68;2.90;;;;;;;;;;5074767;28;20031;-65
2022/07/15 07:54:41;;;;;;;10.05;2.45;;;;;;;;;;5076326;28;20048;-65
2022/07/15 07:57:08;;;;;;;12.07;2.75;;;;;;;;;;5075766;28;20036;-65
2022/07/15 07:59:34;;;;;;;10.55;2.90;;;;;;;;;;5075851;28;20032;-65
2022/07/15 08:02:00;;;;;;;16.40;3.47;;;;;;;;;;5075958;28;20094;-64
2022/07/15 08:04:26;;;;;;;9.73;3.42;;;;;;;;;;5075884;28;20467;-65
2022/07/15 08:06:52;;;;;;;13.50;2.97;;;;;;;;;;5075604;28;20064;-65
2022/07/15 08:09:18;;;;;;;10.25;3.35;;;;;;;;;;5075935;28;20021;-65
2022/07/15 08:11:44;;;;;;;11.85;2.80;;;;;;;;;;5075808;28;20033;-65
2022/07/15 08:14:11;;;;;;;14.43;3.00;;;;;;;;;;5075155;28;20046;-65
2022/07/15 08:16:42;;;;;;;13.77;3.13;;;;;;;;;;5075789;28;20418;-65
2022/07/15 08:19:08;;;;;;;16.13;2.83;;;;;;;;;;5074893;28;20032;-67
2022/07/15 08:21:34;;;;;;;11.32;3.03;;;;;;;;;;5079553;28;20122;-66
2022/07/15 08:24:01;;;;;;;7.53;2.58;;;;;;;;;;5082599;28;20063;-66
2022/07/15 08:26:27;;;;;;;9.82;2.53;;;;;;;;;;5075151;28;20083;-66
2022/07/15 08:28:54;;;;;;;5.38;2.30;;;;;;;;;;5074741;28;20055;-65
2022/07/15 08:31:21;;;;;;;9.88;2.80;;;;;;;;;;5074572;28;20025;-66
2022/07/15 08:33:47;;;;;;;6.47;2.72;;;;;;;;;;5075347;28;20037;-66
2022/07/15 08:36:13;;;;;;;12.57;2.90;;;;;;;;;;5075238;28;20028;-66
2022/07/15 08:38:39;;;;;;;8.45;2.75;;;;;;;;;;5074934;28;20021;-66
2022/07/15 08:41:06;;;;;;;8.85;2.58;;;;;;;;;;5074970;28;20020;-66
2022/07/15 08:43:33;;;;;;;10.20;2.72;;;;;;;;;;5072574;28;20029;-65
2022/07/15 08:45:59;;;;;;;10.02;2.60;;;;;;;;;;5073992;28;20025;-66
2022/07/15 08:48:28;;;;;;;8.05;2.53;;;;;;;;;;5072634;28;20055;-65
2022/07/15 08:50:55;;;;;;;10.50;2.92;;;;;;;;;;5072063;28;20029;-65
2022/07/15 08:53:21;;;;;;;9.73;2.85;;;;;;;;;;5073219;28;20028;-66
2022/07/15 08:55:48;;;;;;;6.28;3.10;;;;;;;;;;5073664;28;20486;-66
2022/07/15 08:58:14;;;;;;;7.75;3.55;;;;;;;;;;5072442;28;20490;-65
2022/07/15 09:00:40;;;;;;;8.63;2.42;;;;;;;;;;5072134;28;20595;-65
2022/07/15 09:03:06;;;;;;;9.68;2.83;;;;;;;;;;5073363;28;20013;-65
2022/07/15 09:05:33;;;;;;;8.55;2.60;;;;;;;;;;5073228;28;20391;-65
2022/07/15 09:07:59;;;;;;;10.48;3.03;;;;;;;;;;5073406;28;20111;-65
2022/07/15 09:10:43;;;;;;;12.68;2.90;;;;;;;;;;5072943;28;20497;-66
2022/07/15 09:13:11;;;;;;;10.00;2.78;;;;;;;;;;5072837;28;20047;-65
2022/07/15 09:15:38;;;;;;;12.10;3.10;;;;;;;;;;5072965;28;20025;-65
2022/07/15 09:18:17;;;;;;;12.75;3.15;;;;;;;;;;5073109;28;20106;-66
2022/07/15 09:20:44;;;;;;;12.45;3.42;;;;;;;;;;5073004;28;20746;-65
2022/07/15 09:23:11;;;;;;;14.52;3.30;;;;;;;;;;5079915;28;20542;-65
2022/07/15 09:25:38;;;;;;;10.57;3.58;;;;;;;;;;5072626;28;20028;-65
2022/07/15 09:28:05;;;;;;;10.80;3.63;;;;;;;;;;5071975;28;20484;-65
2022/07/15 09:33:40;;;;;;;11.65;3.00;;;;;;;;;;5070427;28;20032;-65
2022/07/15 09:36:10;;;;;;;11.48;2.72;;;;;;;;;;5072645;28;20053;-66
2022/07/15 09:38:44;;;;;;;12.20;3.35;;;;;;;;;;5072896;28;20013;-66
2022/07/15 09:41:12;;;;;;;8.85;3.10;;;;;;;;;;5072690;28;20067;-65
2022/07/15 09:44:05;;;;;;;10.93;3.05;;;;;;;;;;5072520;28;20020;-66
2022/07/15 09:46:45;;;;;;;11.15;3.38;;;;;;;;;;5070523;28;20480;-65
2022/07/15 09:49:13;;;;;;;17.33;3.17;;;;;;;;;;5071410;28;20028;-65
2022/07/15 09:51:50;;;;;;;21.90;3.63;;;;;;;;;;5072508;28;20516;-65
2022/07/15 09:54:16;;;;;;;9.85;3.15;;;;;;;;;;5084871;28;20028;-65
2022/07/15 09:56:42;;;;;;;12.65;3.33;;;;;;;;;;5072291;28;20028;-65
2022/07/15 09:59:09;;;;;;;9.07;3.08;;;;;;;;;;5072519;28;20043;-65
2022/07/15 10:01:38;;;;;;;9.38;2.90;;;;;;;;;;5072515;28;20029;-65
2022/07/15 10:04:05;;;;;;;8.93;3.30;;;;;;;;;;5072165;28;20421;-65
2022/07/15 10:06:32;;;;;;;8.48;2.85;;;;;;;;;;5072269;28;20032;-66
2022/07/15 10:08:58;;;;;;;12.98;2.95;;;;;;;;;;5071841;28;20024;-65
2022/07/15 10:11:25;;;;;;;7.72;3.35;;;;;;;;;;5071453;28;20102;-65
2022/07/15 10:14:10;;;;;;;11.55;3.70;;;;;;;;;;5072389;28;20036;-65
2022/07/15 10:16:46;;;;;;;11.48;3.30;;;;;;;;;;5071949;28;20168;-65
2022/07/15 10:19:31;;;;;;;10.82;2.67;;;;;;;;;;5070202;28;20517;-65
2022/07/15 10:22:06;;;;;;;13.45;3.88;;;;;;;;;;5078615;28;20074;-65
2022/07/15 10:24:45;;;;;;;8.75;3.22;;;;;;;;;;5071021;28;20044;-65
2022/07/15 10:27:11;;;;;;;7.32;2.67;;;;;;;;;;5063071;28;20072;-65
2022/07/15 10:29:37;;;;;;;8.05;2.60;;;;;;;;;;5071092;28;20382;-65
2022/07/15 10:32:04;;;;;;;16.30;4.00;;;;;;;;;;5072101;28;20433;-65
2022/07/15 10:34:31;;;;;;;8.27;3.22;;;;;;;;;;5072315;28;20063;-65
2022/07/15 10:36:59;;;;;;;11.30;2.90;;;;;;;;;;5068421;28;20032;-65
2022/07/15 10:39:26;;;;;;;12.90;4.63;;;;;;;;;;5072081;28;20055;-65
2022/07/15 10:42:02;;;;;;;9.98;2.80;;;;;;;;;;5071670;28;20111;-65
2022/07/15 10:44:33;;;;;;;7.97;2.92;;;;;;;;;;5065193;28;20040;-66
2022/07/15 10:47:14;;;;;;;10.95;2.92;;;;;;;;;;5071155;28;20090;-66
2022/07/15 10:49:41;;;;;;;13.93;3.55;;;;;;;;;;5065057;28;20036;-66
2022/07/15 10:52:14;;;;;;;10.35;3.13;;;;;;;;;;5071985;28;20016;-66
2022/07/15 10:54:42;;;;;;;10.95;2.67;;;;;;;;;;5071070;28;20119;-65
2022/07/15 10:57:08;;;;;;;9.18;2.45;;;;;;;;;;5071865;28;20113;-65
2022/07/15 10:59:41;;;;;;;8.55;2.72;;;;;;;;;;5071820;28;20558;-66
2022/07/15 11:02:07;;;;;;;8.75;2.85;;;;;;;;;;5070645;28;20498;-65
2022/07/15 11:04:34;;;;;;;13.05;2.90;;;;;;;;;;5071165;28;20213;-65
2022/07/15 11:07:03;;;;;;;12.73;2.42;;;;;;;;;;5070946;28;20106;-65
2022/07/15 11:09:48;;;;;;;7.25;2.67;;;;;;;;;;5071480;28;20074;-65
2022/07/15 11:12:19;;;;;;;11.93;2.60;;;;;;;;;;5070567;28;20013;-66
2022/07/15 11:14:46;;;;;;;14.20;2.53;;;;;;;;;;5071085;28;20474;-65
2022/07/15 11:17:16;;;;;;;9.50;2.40;;;;;;;;;;5070984;28;20032;-65
2022/07/15 11:19:43;;;;;;;10.35;2.63;;;;;;;;;;5070853;28;20040;-65
2022/07/15 11:22:09;;;;;;;11.10;2.95;;;;;;;;;;5073070;28;20035;-66
2022/07/15 11:24:36;;;;;;;8.40;2.58;;;;;;;;;;5071332;28;20027;-66
2022/07/15 11:27:02;;;;;;;8.43;3.20;;;;;;;;;;5070650;28;20470;-66
2022/07/15 11:29:48;;;;;;;10.48;3.13;;;;;;;;;;5072266;28;20045;-65
2022/07/15 11:32:15;;;;;;;7.72;2.42;;;;;;;;;;5072394;28;20052;-66
2022/07/15 11:34:43;;;;;;;7.55;2.60;;;;;;;;;;5072098;28;20478;-65
2022/07/15 11:37:10;;;;;;;9.13;2.60;;;;;;;;;;5071786;28;20038;-65
2022/07/15 11:39:37;;;;;;;8.27;2.00;;;;;;;;;;5071413;28;20055;-65
2022/07/15 11:44:48;;;;;;;7.95;2.53;;;;;;;;;;5072049;28;20114;-65
2022/07/15 11:47:14;;;;;;;9.57;2.70;;;;;;;;;;5071949;28;20039;-65
2022/07/15 11:49:44;;;;;;;9.80;2.67;;;;;;;;;;5070764;28;20060;-65
2022/07/15 11:52:23;;;;;;;7.75;2.33;;;;;;;;;;5071711;28;20478;-66
2022/07/15 11:54:49;;;;;;;8.10;3.00;;;;;;;;;;5071957;28;20115;-65
2022/07/15 11:57:16;;;;;;;4.82;2.65;;;;;;;;;;5071899;28;20090;-65
2022/07/15 11:59:53;;;;;;;9.27;2.70;;;;;;;;;;5070534;28;20028;-65
2022/07/15 12:02:19;;;;;;;5.55;2.20;;;;;;;;;;5071848;28;20067;-65
2022/07/15 12:04:45;;;;;;;8.32;3.03;;;;;;;;;;5070640;28;20108;-65
2022/07/15 12:07:11;;;;;;;7.22;2.30;;;;;;;;;;5071536;28;20103;-65
2022/07/15 12:09:40;;;;;;;10.07;2.55;;;;;;;;;;5070636;28;20426;-66
2022/07/15 12:12:07;;;;;;;8.77;2.33;;;;;;;;;;5071916;28;20478;-66
2022/07/15 12:14:33;;;;;;;3.95;1.92;;;;;;;;;;5071877;28;20031;-66
2022/07/15 12:16:59;;;;;;;4.80;2.30;;;;;;;;;;5071838;28;20115;-66
2022/07/15 12:19:27;;;;;;;6.15;2.00;;;;;;;;;;5071903;28;20078;-65
2022/07/15 12:21:54;;;;;;;9.07;2.28;;;;;;;;;;5077892;28;20539;-66
2022/07/15 12:24:21;;;;;;;6.78;2.80;;;;;;;;;;5077569;28;20037;-65
2022/07/15 12:26:51;;;;;;;6.28;2.97;;;;;;;;;;5071811;28;20032;-65
2022/07/15 12:29:18;;;;;;;9.63;2.70;;;;;;;;;;5072073;28;20037;-65
2022/07/15 12:31:52;;;;;;;6.50;2.33;;;;;;;;;;5071563;28;20029;-65
2022/07/15 12:34:18;;;;;;;8.10;2.85;;;;;;;;;;5071953;28;20119;-65
2022/07/15 12:36:44;;;;;;;10.50;3.65;;;;;;;;;;5075469;28;20397;-65
2022/07/15 12:39:11;;;;;;;7.88;2.97;;;;;;;;;;5075316;28;20047;-66
2022/07/15 12:41:38;;;;;;;10.63;2.92;;;;;;;;;;5075033;28;20056;-65
2022/07/15 12:44:05;;;;;;;4.68;2.20;;;;;;;;;;5075491;28;20021;-66
2022/07/15 12:47:03;;;;;;;9.20;2.33;;;;;;;;;;5075312;28;20040;-66
2022/07/15 12:49:49;;;;;;;8.05;2.40;;;;;;;;;;5012897;28;20524;-65
2022/07/15 12:52:18;;;;;;;6.15;2.55;;;;;;;;;;5013257;28;20041;-65
2022/07/15 12:54:44;;;;;;;6.50;2.03;;;;;;;;;;5013257;28;20038;-65
2022/07/15 12:57:19;;;;;;;10.13;2.40;;;;;;;;;;5012662;28;20042;-65
2022/07/15 12:59:49;;;;;;;9.70;2.90;;;;;;;;;;5013026;28;20038;-66
2022/07/15 13:02:15;;;;;;;10.40;2.50;;;;;;;;;;5012716;28;20034;-65
2022/07/15 13:04:41;;;;;;;8.55;2.20;;;;;;;;;;5012586;28;20412;-66
2022/07/15 13:07:08;;;;;;;11.32;2.70;;;;;;;;;;5012239;28;20037;-65
2022/07/15 13:09:34;;;;;;;7.18;2.50;;;;;;;;;;5012952;28;20038;-66
2022/07/15 13:12:00;;;;;;;7.80;2.92;;;;;;;;;;5012581;28;20221;-65
2022/07/15 13:14:27;;;;;;;11.45;2.65;;;;;;;;;;5012905;28;20081;-66
2022/07/15 13:16:53;;;;;;;11.35;3.60;;;;;;;;;;5012581;28;20045;-66
2022/07/15 13:19:19;;;;;;;6.47;2.47;;;;;;;;;;5012480;28;20044;-66
2022/07/15 13:21:45;;;;;;;8.88;2.58;;;;;;;;;;5018025;28;20025;-66
2022/07/15 13:24:11;;;;;;;6.05;2.35;;;;;;;;;;5028537;28;20462;-66
2022/07/15 13:26:37;;;;;;;10.00;2.80;;;;;;;;;;5074402;28;20041;-66
2022/07/15 13:29:04;;;;;;;7.30;2.47;;;;;;;;;;5074161;28;20040;-66
2022/07/15 13:31:30;;;;;;;9.75;2.80;;;;;;;;;;5074552;28;20032;-66
2022/07/15 13:33:56;;;;;;;8.75;2.58;;;;;;;;;;5074119;28;20150;-66
2022/07/15 13:36:22;;;;;;;11.48;2.50;;;;;;;;;;5074453;28;20035;-66
2022/07/15 13:38:49;;;;;;;8.45;2.40;;;;;;;;;;5074114;28;20033;-65
2022/07/15 13:41:15;;;;;;;10.23;2.28;;;;;;;;;;5074420;28;20122;-65
2022/07/15 13:43:44;;;;;;;8.80;2.75;;;;;;;;;;5074032;28;20508;-65
2022/07/15 13:46:10;;;;;;;11.07;3.00;;;;;;;;;;5073386;28;20082;-65
2022/07/15 13:48:36;;;;;;;10.10;2.55;;;;;;;;;;5073552;28;20016;-65
2022/07/15 13:53:47;;;;;;;7.00;2.53;;;;;;;;;;5073970;28;20047;-66
2022/07/15 13:56:14;;;;;;;5.75;2.42;;;;;;;;;;5073995;28;20498;-66
2022/07/15 13:58:40;;;;;;;8.65;2.58;;;;;;;;;;5073862;28;20078;-65
2022/07/15 14:01:06;;;;;;;7.10;2.33;;;;;;;;;;5073553;28;20035;-65
2022/07/15 14:03:32;;;;;;;14.13;2.88;;;;;;;;;;5073712;28;20033;-65
2022/07/15 14:05:58;;;;;;;6.55;2.50;;;;;;;;;;5073677;28;20458;-66
2022/07/15 14:08:24;;;;;;;13.35;2.70;;;;;;;;;;5072323;28;20085;-66
2022/07/15 14:10:50;;;;;;;11.05;3.13;;;;;;;;;;5073392;28;20036;-66
2022/07/15 14:13:17;;;;;;;9.63;2.92;;;;;;;;;;5073625;28;20029;-66
2022/07/15 14:15:43;;;;;;;10.18;2.65;;;;;;;;;;5073068;28;20013;-66
2022/07/15 14:18:09;;;;;;;10.38;3.08;;;;;;;;;;5073681;28;20033;-65
2022/07/15 14:20:35;;;;;;;9.55;2.90;;;;;;;;;;5073374;28;20036;-66
2022/07/15 14:23:02;;;;;;;12.75;3.17;;;;;;;;;;5086007;28;20020;-66
2022/07/15 14:25:28;;;;;;;10.57;2.58;;;;;;;;;;5073643;28;20050;-65
2022/07/15 14:27:54;;;;;;;7.10;2.63;;;;;;;;;;5072972;28;20052;-65
2022/07/15 14:30:21;;;;;;;9.25;3.10;;;;;;;;;;5073087;28;20033;-65
2022/07/15 14:32:47;;;;;;;8.10;3.03;;;;;;;;;;5073266;28;20048;-65
2022/07/15 14:35:13;;;;;;;9.98;2.90;;;;;;;;;;5073158;28;20113;-66
2022/07/15 14:37:39;;;;;;;7.03;2.28;;;;;;;;;;5071979;28;20097;-65
2022/07/15 14:40:06;;;;;;;13.77;3.22;;;;;;;;;;5072762;28;20500;-65
2022/07/15 14:42:32;;;;;;;10.20;2.72;;;;;;;;;;5072639;28;20028;-66
2022/07/15 14:44:59;;;;;;;7.95;2.88;;;;;;;;;;5072241;28;20032;-65
2022/07/15 14:47:25;;;;;;;15.90;3.25;;;;;;;;;;5072583;28;20370;-66
2022/07/15 14:49:51;;;;;;;5.78;2.47;;;;;;;;;;5072865;28;20399;-65
2022/07/15 14:52:17;;;;;;;10.85;2.58;;;;;;;;;;5072785;28;20028;-66
2022/07/15 14:54:43;;;;;;;5.18;2.55;;;;;;;;;;5073026;28;20036;-65
2022/07/15 14:57:10;;;;;;;10.38;3.10;;;;;;;;;;5072469;28;20077;-65